Huvudsida
METAR-TAF:

METAR-TAF

Flygplatser :

Ronneby Airport

Ronneby, Sverige

latitud: 56-16N, longitud: 015-17E, höjd: 58 m

Aktuellt väderrapport

Denna rapport gjordes för 18 minuter sedan, klockan 06:20 UTC
Vind 12 kt från väst
Temperatur 16°C
Fuktighet 77%
Tryck 1005 hPa
Sikt 10 km eller mer
Brutna moln på en höjd av 2200 ft
Brutna moln på en höjd av 4000 ft

METAR: ESDF 210620Z 27012KT 9999 BKN022 BKN040 16/12 Q1005

Tid: 08:38 (06:38 UTC)

Väderprognos

Denna rapport gjordes för 2 timmar och 8 minuter sedan, klockan 04:30 UTC
Prognos gäller från 21 kl. 05 UTC till 21 kl. 15 UTC
Vind 12 kt från väst/sydväst i byarna ända upp till 22 kt
Sikt 10 km eller mer
Spridda moln på en höjd av 2000 ft
Brutna moln på en höjd av 4000 ft
Temporärt
från 21 kl. 05 UTC till 21 kl. 12 UTC
Brutna moln på en höjd av 1400 ft
Brutna moln på en höjd av 3000 ft, Cumulonimbus.
lätta regnskurar

TAF: ESDF 210430Z 2105/2115 24012G22KT 9999 SCT020 BKN040 TEMPO 2105/2112 -SHRA BKN014 BKN030CB RMK MIL

Aktuella väderrapporter och prognoser från 4000 flygplatser (METAR- och TAF-rapporter).

De tillgängliga stationerna syns som gula och röda prickar på kartan.

För musen över prickarna för att se namnen på stationerna.

Klicka sedan för att få väderrapporter och prognoser.

För att ändra kartan: Klicka på de gröna knapparna med ett svart kors på för att zooma in; den gröna knappen med ett streck på för att zooma ut; eller på de gröna pilarna för angränsande kartor.


METAR-TAF: